Terminal Aerodrome Forecast
Issued by NWS

Home | Current Version | Previous Version | Text Only | Print | Product List | Glossary On
Versions: 1 2 3 4 5 6 7 8 9 10 11 12 13 14 15 16
000
FTUS43 KGLD 210521
TAFMCK
TAF
KMCK 210521Z 2106/2206 05012KT P6SM BKN250
     FM211600 08014KT P6SM BKN090
     FM212000 10015G23KT P6SM BKN045
     FM220200 09014KT P6SM OVC035=

USA.gov is the U.S. government's official web portal to all federal, state and local government web resources and services.